Time;durP1;ratioP1;P1;durP2;ratioP2;P2;SDS_P1;SDS_P2;PMS_P1;PMS_P2;Temp;Humidity;BMP_temperature;BMP_pressure;BME280_temperature;BME280_humidity;BME280_pressure;Samples;Min_cycle;Max_cycle;Signal;HPM_P1;HPM_P2
2022/05/06 00:02:04;;;;;;;11.30;5.72;;;6.20;1.00;;;6.52;55.36;100073.78;5014031;28;130413;-74
2022/05/06 00:04:33;;;;;;;12.43;6.30;;;6.10;1.00;;;6.51;55.83;100077.56;4983049;28;129162;-74
2022/05/06 00:07:02;;;;;;;15.52;6.60;;;6.00;1.00;;;6.47;55.40;100077.31;5014188;28;126212;-74
2022/05/06 00:09:31;;;;;;;14.40;6.20;;;6.00;1.00;;;6.42;56.12;100070.03;5016547;28;125574;-74
2022/05/06 00:12:01;;;;;;;10.52;6.10;;;5.90;1.00;;;6.41;56.13;100068.41;5017133;28;131014;-74
2022/05/06 00:14:29;;;;;;;12.95;6.22;;;5.90;1.00;;;6.37;56.14;100078.09;5002433;28;128637;-73
2022/05/06 00:16:58;;;;;;;14.65;6.93;;;5.90;1.00;;;6.33;56.01;100066.25;5002327;28;125557;-73
2022/05/06 00:19:27;;;;;;;11.80;5.82;;;5.80;1.00;;;6.35;56.34;100069.47;5002471;28;125450;-73
2022/05/06 00:21:55;;;;;;;10.20;5.60;;;5.90;1.00;;;6.33;55.97;100077.03;5017514;28;130639;-73
2022/05/06 00:24:24;;;;;;;15.40;6.82;;;5.90;1.00;;;6.34;56.18;100077.81;5017195;28;129218;-73
2022/05/06 00:26:52;;;;;;;12.57;6.32;;;5.90;1.00;;;6.31;56.62;100079.19;5017445;28;127249;-73
2022/05/06 00:29:22;;;;;;;11.80;6.65;;;5.80;1.00;;;6.31;56.43;100068.41;5002244;28;124691;-73
2022/05/06 00:31:50;;;;;;;10.68;5.70;;;5.80;1.00;;;6.32;56.38;100067.31;5002259;28;130761;-73
2022/05/06 00:34:19;;;;;;;14.65;6.78;;;5.80;1.00;;;6.28;56.60;100075.13;5002236;28;129711;-73
2022/05/06 00:36:49;;;;;;;13.23;6.60;;;5.80;1.00;;;6.30;57.16;100077.56;5001545;28;125580;-74
2022/05/06 00:39:18;;;;;;;13.93;6.18;;;5.70;1.00;;;6.27;57.21;100078.91;5002400;28;125338;-74
2022/05/06 00:41:47;;;;;;;11.98;5.90;;;5.70;1.00;;;6.28;56.66;100080.53;5016766;28;130504;-73
2022/05/06 00:44:15;;;;;;;9.52;5.88;;;5.70;1.00;;;6.26;56.94;100076.47;5001732;28;128439;-72
2022/05/06 00:46:46;;;;;;;15.38;6.53;;;5.70;1.00;;;6.25;57.54;100077.56;5017852;28;125896;-73
2022/05/06 00:49:15;;;;;;;13.75;6.57;;;5.80;1.00;;;6.23;57.07;100082.41;5021498;27;126700;-74
2022/05/06 00:51:44;;;;;;;15.48;6.38;;;5.80;1.00;;;6.23;57.11;100068.91;5038840;27;130052;-75
2022/05/06 00:54:13;;;;;;;11.57;5.85;;;5.80;1.00;;;6.26;57.20;100071.06;5037123;27;129776;-73
2022/05/06 00:56:41;;;;;;;11.70;5.75;;;5.70;1.00;;;6.22;57.44;100073.50;5035843;27;125754;-74
2022/05/06 00:59:09;;;;;;;15.90;6.07;;;5.80;1.00;;;6.23;56.54;100071.63;5036723;27;125292;-72
2022/05/06 01:01:38;;;;;;;12.27;5.45;;;5.80;1.00;;;6.23;56.94;100071.63;5036280;27;130494;-74
2022/05/06 01:04:10;;;;;;;10.93;5.93;;;5.80;1.00;;;6.24;56.90;100067.84;5035341;27;130041;-72
2022/05/06 01:06:40;;;;;;;9.90;5.32;;;5.70;1.00;;;6.22;56.74;100064.63;5038813;27;125206;-71
2022/05/06 01:09:12;;;;;;;10.38;5.22;;;5.70;1.00;;;6.22;56.13;100061.94;5021496;27;125697;-72
2022/05/06 01:11:41;;;;;;;11.73;5.60;;;5.60;1.00;;;6.22;56.59;100062.72;5038257;27;129683;-74
2022/05/06 01:14:11;;;;;;;10.57;5.68;;;5.70;1.00;;;6.24;55.73;100057.06;5038689;27;130337;-72
2022/05/06 01:16:39;;;;;;;10.55;4.93;;;5.70;1.00;;;6.28;55.03;100064.34;5035630;27;125815;-72
2022/05/06 01:19:11;;;;;;;10.52;5.07;;;5.80;1.00;;;6.30;55.04;100054.09;5035696;27;126951;-72
2022/05/06 01:21:44;;;;;;;10.15;4.80;;;5.90;1.00;;;6.33;55.03;100054.63;5038306;27;129984;-72
2022/05/06 01:24:13;;;;;;;10.05;5.07;;;5.80;1.00;;;6.38;54.23;100057.34;5038147;27;129299;-72
2022/05/06 01:27:03;;;;;;;10.93;5.63;;;5.90;1.00;;;6.40;54.21;100055.97;5036138;27;126978;-71
2022/05/06 01:29:32;;;;;;;10.30;4.85;;;5.90;1.00;;;6.45;54.02;100053.31;5038342;27;125905;-71
2022/05/06 01:32:02;;;;;;;9.15;4.97;;;5.90;1.00;;;6.48;53.18;100052.75;5036350;27;130489;-72
2022/05/06 01:34:32;;;;;;;8.90;4.40;;;6.00;1.00;;;6.52;53.49;100046.81;5034840;27;129362;-74
2022/05/06 01:37:04;;;;;;;9.05;4.53;;;6.10;1.00;;;6.53;53.51;100049.25;5038146;27;125922;-73
2022/05/06 01:39:36;;;;;;;9.75;4.75;;;6.10;1.00;;;6.55;53.04;100046.28;5036199;27;125757;-71
2022/05/06 01:42:12;;;;;;;9.02;4.78;;;6.20;1.00;;;6.56;53.33;100047.88;5034724;27;130137;-71
2022/05/06 01:44:58;;;;;;;8.82;4.57;;;6.20;1.00;;;6.58;52.91;100051.16;5038612;27;129944;-70
2022/05/06 01:47:29;;;;;;;10.98;4.57;;;6.20;1.00;;;6.58;53.39;100057.34;5038025;27;125601;-74
2022/05/06 01:50:05;;;;;;;8.57;4.72;;;6.20;1.00;;;6.56;53.61;100054.09;5035045;27;127883;-74
2022/05/06 01:52:36;;;;;;;10.18;4.53;;;6.10;1.00;;;6.53;53.23;100054.66;5037454;27;129739;-72
2022/05/06 01:55:08;;;;;;;11.70;4.70;;;6.20;1.00;;;6.54;52.93;100066.22;5036140;27;130733;-72
2022/05/06 01:57:49;;;;;;;8.70;4.88;;;6.20;1.00;;;6.56;52.88;100069.47;5038065;27;125918;-72
2022/05/06 02:00:19;;;;;;;7.70;4.55;;;6.10;1.00;;;6.53;53.27;100065.44;5034856;27;125950;-73
2022/05/06 02:02:49;;;;;;;10.18;4.63;;;6.10;1.00;;;6.53;52.78;100076.22;5037938;27;130589;-73
2022/05/06 02:05:25;;;;;;;10.00;5.00;;;5.90;1.00;;;6.47;52.96;100071.91;5034586;27;129310;-72
2022/05/06 02:07:57;;;;;;;10.55;4.88;;;5.80;1.00;;;6.42;53.05;100064.63;5038054;27;125522;-72
2022/05/06 02:10:27;;;;;;;9.55;4.15;;;5.70;1.00;;;6.37;53.46;100067.31;5021102;27;125265;-72
2022/05/06 02:13:05;;;;;;;8.50;4.60;;;5.70;1.00;;;6.32;54.09;100070.00;5037508;27;130348;-72
2022/05/06 02:15:52;;;;;;;;;;;5.70;1.00;;;6.21;54.57;100060.31;5034696;27;129559;-72
2022/05/06 02:18:59;;;;;;;11.07;4.70;;;5.70;1.00;;;6.20;53.92;100061.38;4995055;28;126262;-72
2022/05/06 02:21:46;;;;;;;9.40;4.45;;;5.60;1.00;;;6.17;54.63;100061.91;4992861;28;126034;-72
2022/05/06 02:24:38;;;;;;;9.65;4.45;;;5.50;1.00;;;6.12;54.43;100060.00;5000046;27;129776;-73
2022/05/06 02:27:27;;;;;;;9.40;4.63;;;5.50;1.00;;;6.11;55.40;100059.22;5038572;27;129156;-72
2022/05/06 02:35:34;;;;;;;12.77;4.93;;;5.40;1.00;;;6.09;55.57;100058.69;5037699;27;130054;-73
2022/05/06 02:38:03;;;;;;;13.25;4.82;;;5.50;1.00;;;6.12;55.25;100057.31;5037619;27;129323;-73
2022/05/06 02:40:35;;;;;;;13.30;5.43;;;5.40;1.00;;;6.19;54.98;100055.19;5036937;27;125902;-72
2022/05/06 02:43:07;;;;;;;10.05;4.70;;;5.40;1.00;;;6.22;54.84;100059.25;5036778;27;126264;-72
2022/05/06 02:45:38;;;;;;;8.82;4.38;;;5.40;1.00;;;6.23;54.67;100061.66;5036219;27;129810;-72
2022/05/06 02:48:08;;;;;;;9.93;4.55;;;5.50;1.00;;;6.28;54.80;100063.56;5056370;27;130192;-74
2022/05/06 02:50:38;;;;;;;10.88;4.72;;;5.60;1.00;;;6.33;54.49;100055.47;5036620;27;125497;-74
2022/05/06 02:53:08;;;;;;;10.82;5.00;;;5.60;1.00;;;6.39;54.27;100065.16;5036993;27;125650;-72
2022/05/06 02:55:38;;;;;;;8.65;4.78;;;5.70;1.00;;;6.49;54.52;100064.34;5039974;27;129310;-73
2022/05/06 02:58:09;;;;;;;11.57;4.85;;;5.70;1.00;;;6.63;54.34;100070.00;5055255;27;130083;-73
2022/05/06 03:00:40;;;;;;;11.57;5.15;;;5.70;1.00;;;6.74;54.10;100066.22;5037129;27;126014;-72
2022/05/06 03:03:10;;;;;;;9.75;4.75;;;5.80;1.00;;;6.95;53.73;100066.16;5040639;27;126222;-73
2022/05/06 03:05:43;;;;;;;12.05;4.78;;;5.90;1.00;;;7.18;53.25;100072.88;5039807;27;130155;-74
2022/05/06 03:08:12;;;;;;;10.18;5.13;;;6.10;1.00;;;7.42;52.18;100075.75;5040177;27;129499;-72
2022/05/06 03:10:41;;;;;;;12.15;5.30;;;6.20;1.00;;;7.66;51.56;100080.53;5039892;27;125939;-73
2022/05/06 03:13:12;;;;;;;10.70;4.97;;;6.40;1.00;;;8.01;50.33;100081.38;5040219;27;125994;-72
2022/05/06 03:15:42;;;;;;;12.13;4.88;;;6.60;1.00;;;8.09;49.52;100086.22;5023225;27;129394;-75
2022/05/06 03:18:15;;;;;;;10.43;4.75;;;6.70;1.00;;;8.16;49.62;100085.91;5056677;27;129366;-73
2022/05/06 03:20:44;;;;;;;9.93;5.00;;;6.70;1.00;;;8.20;49.79;100084.25;5023080;27;126332;-74
2022/05/06 03:23:15;;;;;;;9.27;4.90;;;6.60;1.00;;;8.19;49.78;100077.22;5040239;27;124828;-74
2022/05/06 03:25:44;;;;;;;12.07;5.68;;;6.60;1.00;;;8.24;49.89;100074.50;5039806;27;129606;-73
2022/05/06 03:28:14;;;;;;;8.48;4.78;;;6.70;1.00;;;8.39;49.60;100082.47;5040229;27;129340;-73
2022/05/06 03:30:45;;;;;;;10.50;4.85;;;6.80;1.00;;;8.48;49.42;100085.44;5055069;27;125583;-72
2022/05/06 03:33:41;;;;;;;12.30;5.53;;;7.00;1.00;;;8.66;48.60;100075.00;5039193;27;124652;-73
2022/05/06 03:36:20;;;;;;;9.73;5.40;;;7.30;1.00;;;8.93;47.66;100069.88;5039539;27;130039;-73
2022/05/06 03:39:04;;;;;;;10.38;5.22;;;7.50;1.00;;;9.18;47.78;100070.69;5039811;27;130528;-73
2022/05/06 03:41:39;;;;;;;9.88;5.00;;;7.70;1.00;;;9.48;47.27;100069.50;5039680;27;125809;-75
2022/05/06 03:44:10;;;;;;;10.40;4.95;;;8.00;1.00;;;9.75;46.95;100078.94;5041861;27;125922;-74
2022/05/06 03:46:43;;;;;;;10.02;5.05;;;8.20;1.00;;;9.92;46.13;100075.72;5042878;27;130870;-73
2022/05/06 03:49:12;;;;;;;7.97;5.13;;;8.40;1.00;;;10.23;45.73;100080.69;5040081;27;130325;-74
2022/05/06 03:51:39;;;;;;;11.05;5.05;;;8.60;1.00;;;10.44;44.65;100083.94;5058273;27;125780;-75
2022/05/06 03:54:12;;;;;;;10.10;5.32;;;8.80;1.00;;;10.65;44.37;100081.69;5059172;27;125708;-72
2022/05/06 03:56:42;;;;;;;9.93;5.00;;;8.90;1.00;;;10.81;44.08;100070.56;5058263;27;129938;-71
2022/05/06 03:59:13;;;;;;;8.50;4.82;;;9.10;1.00;;;10.94;43.34;100080.66;5022049;27;129956;-72
2022/05/06 04:01:46;;;;;;;13.13;5.40;;;9.20;1.00;;;10.99;42.99;100080.53;5037112;27;127111;-74
2022/05/06 04:04:22;;;;;;;11.85;5.28;;;9.30;1.00;;;11.06;42.85;100078.22;5022654;27;126161;-75
2022/05/06 04:06:51;;;;;;;12.45;5.47;;;9.40;1.00;;;11.00;42.44;100076.72;5021017;27;131499;-74
2022/05/06 04:09:21;;;;;;;11.88;5.00;;;9.20;1.00;;;10.94;43.29;100073.28;5022691;27;128940;-75
2022/05/06 04:11:51;;;;;;;11.75;5.43;;;9.20;1.00;;;10.97;43.17;100074.63;5022596;27;125385;-76
2022/05/06 04:14:21;;;;;;;14.13;5.63;;;9.20;1.00;;;10.92;42.86;100069.25;5005284;27;125206;-74
2022/05/06 04:16:51;;;;;;;13.82;5.30;;;9.20;1.00;;;10.82;43.07;100067.53;5018693;27;130278;-73
2022/05/06 04:19:31;;;;;;;10.75;5.95;;;9.10;1.00;;;10.83;43.57;100071.03;5021458;27;129717;-74
2022/05/06 04:24:57;;;;;;;11.05;5.75;;;9.00;1.00;;;10.56;43.87;100075.31;5022532;27;127109;-73
2022/05/06 04:27:28;;;;;;;11.48;5.25;;;8.90;1.00;;;10.54;43.79;100064.75;5021898;27;129995;-76
2022/05/06 04:30:02;;;;;;;8.77;5.03;;;8.90;1.00;;;10.55;43.98;100068.25;5021433;27;130088;-75
2022/05/06 04:32:43;;;;;;;13.85;5.35;;;8.90;1.00;;;10.51;43.66;100075.41;5022270;27;125581;-75
2022/05/06 04:35:16;;;;;;;9.63;4.70;;;8.80;1.00;;;10.56;44.19;100064.47;5004872;27;124210;-74
2022/05/06 04:37:46;;;;;;;9.45;4.60;;;8.90;1.00;;;10.61;43.84;100069.78;5022094;27;129991;-75
2022/05/06 04:40:16;;;;;;;7.82;4.97;;;8.90;1.00;;;10.73;43.70;100063.91;5022150;27;129500;-75
2022/05/06 04:42:46;;;;;;;7.93;4.72;;;9.00;1.00;;;10.88;43.33;100070.97;5022244;27;125528;-75
2022/05/06 04:45:17;;;;;;;12.32;5.55;;;9.20;1.00;;;11.04;43.31;100072.28;5022435;27;124222;-75
2022/05/06 04:47:57;;;;;;;12.32;4.90;;;9.30;1.00;;;11.07;42.98;100071.69;5004673;28;129002;-74
2022/05/06 04:50:27;;;;;;;8.30;4.75;;;9.40;1.00;;;11.11;43.20;100074.59;5002292;28;128255;-75
2022/05/06 04:52:55;;;;;;;9.80;4.45;;;9.40;1.00;;;11.19;42.84;100075.81;4998191;28;126414;-75
2022/05/06 04:55:24;;;;;;;12.73;5.57;;;9.40;1.00;;;11.33;42.68;100077.44;4998198;28;126186;-75
2022/05/06 04:57:53;;;;;;;16.05;5.38;;;9.50;1.00;;;11.45;42.56;100084.28;5001832;28;129883;-76
2022/05/06 05:00:24;;;;;;;10.82;5.32;;;9.70;1.00;;;11.61;41.97;100077.41;5001851;28;129238;-75
2022/05/06 05:02:53;;;;;;;13.93;5.28;;;9.90;1.00;;;11.79;41.84;100081.09;4997769;28;125925;-77
2022/05/06 05:05:24;;;;;;;13.35;5.07;;;10.00;1.00;;;11.87;41.19;100080.41;5001540;28;125928;-74
2022/05/06 05:07:53;;;;;;;12.07;5.10;;;10.10;1.00;;;12.02;41.43;100075.75;5002008;28;129946;-75
2022/05/06 05:10:22;;;;;;;14.63;5.70;;;10.20;1.00;;;12.14;40.72;100078.75;4999046;28;129099;-75
2022/05/06 05:12:53;;;;;;;11.13;5.15;;;10.30;1.00;;;12.11;40.97;100075.84;5001942;28;125053;-75
2022/05/06 05:15:27;;;;;;;15.63;5.28;;;10.40;1.00;;;12.28;40.65;100084.13;5001842;28;125990;-75
2022/05/06 05:17:57;;;;;;;11.70;5.32;;;10.50;1.00;;;12.40;40.18;100083.56;4997846;28;130001;-75
2022/05/06 05:20:25;;;;;;;9.68;5.28;;;10.60;1.00;;;12.62;39.98;100077.31;4998542;28;129314;-76
2022/05/06 05:22:56;;;;;;;10.45;4.40;;;10.70;1.00;;;12.79;39.25;100076.59;4985349;28;124567;-76
2022/05/06 05:25:25;;;;;;;10.15;4.50;;;10.90;1.00;;;12.98;38.92;100070.13;5002324;28;125317;-74
2022/05/06 05:27:54;;;;;;;11.25;4.70;;;11.10;1.00;;;13.22;38.50;100070.56;5001217;28;129508;-75
2022/05/06 05:30:34;;;;;;;10.15;4.72;;;11.20;1.00;;;13.33;38.78;100067.56;5001801;28;129764;-77
2022/05/06 05:33:05;;;;;;;13.02;5.38;;;11.30;1.00;;;13.44;38.77;100075.13;5001992;28;125171;-74
2022/05/06 05:35:35;;;;;;;12.35;5.03;;;11.50;1.00;;;13.51;37.94;100066.50;5002008;28;125517;-76
2022/05/06 05:38:09;;;;;;;9.40;4.97;;;11.60;1.00;;;13.55;37.73;100075.66;4998485;28;130179;-77
2022/05/06 05:40:38;;;;;;;7.32;4.40;;;11.50;1.00;;;13.64;37.82;100076.47;4998039;28;130329;-74
2022/05/06 05:48:19;;;;;;;10.02;4.68;;;11.50;99.90;;;13.91;36.65;100077.31;5001195;28;125444;-76
2022/05/06 05:48:52;;;;;;;11.35;4.82;;;11.70;99.90;;;14.11;36.82;100086.00;5001694;28;129302;-75
2022/05/06 05:51:23;;;;;;;8.50;4.88;;;12.00;99.90;;;14.23;36.24;100083.44;5000968;28;129479;-75
2022/05/06 05:53:58;;;;;;;17.77;5.07;;;12.10;99.90;;;14.50;36.12;100086.94;5001792;28;125013;-76
2022/05/06 05:56:31;;;;;;;12.13;5.38;;;12.30;99.90;;;14.67;36.16;100081.47;5017206;28;125448;-76
2022/05/06 05:59:00;;;;;;;9.68;5.72;;;12.50;99.90;;;14.94;35.38;100089.59;5000518;28;129445;-76
2022/05/06 06:01:32;;;;;;;11.02;5.38;;;12.70;99.90;;;15.14;34.79;100093.56;5001214;28;130528;-77
2022/05/06 06:04:05;;;;;;;12.82;5.45;;;12.70;99.90;;;15.30;34.51;100086.41;4997571;28;125688;-75
2022/05/06 06:06:35;;;;;;;10.45;5.43;;;12.90;99.90;;;15.41;34.82;100082.19;5000013;28;125444;-77
2022/05/06 06:09:04;;;;;;;12.43;5.35;;;13.10;99.90;;;15.33;34.93;100069.34;5000463;28;129537;-76
2022/05/06 06:11:32;;;;;;;15.27;5.30;;;13.20;99.90;;;15.40;34.78;100072.38;4984298;28;129377;-77
2022/05/06 06:14:01;;;;;;;12.63;5.80;;;13.20;99.90;;;15.53;34.41;100072.47;5016407;28;126202;-74
2022/05/06 06:16:31;;;;;;;15.45;5.63;;;13.30;99.90;;;15.77;33.65;100072.66;5001033;28;126328;-76
2022/05/06 06:18:59;;;;;;;15.38;6.20;;;13.40;99.90;;;15.67;33.89;100078.47;4984030;28;130725;-76
2022/05/06 06:21:30;;;;;;;15.02;5.82;;;13.20;99.90;;;15.63;34.20;100077.56;4997760;28;130390;-77
2022/05/06 06:23:59;;;;;;;16.40;5.72;;;13.30;99.90;;;15.79;34.36;100075.88;5000742;28;125546;-76
2022/05/06 06:26:28;;;;;;;11.15;5.60;;;13.60;99.90;;;15.91;34.14;100074.31;4984821;28;125108;-75
2022/05/06 06:29:00;;;;;;;13.27;5.68;;;13.80;99.90;;;15.96;34.10;100074.16;5000417;28;129609;-75
2022/05/06 06:31:30;;;;;;;12.23;5.70;;;13.80;99.90;;;16.11;33.39;100070.81;5000199;28;129360;-75
2022/05/06 06:34:03;;;;;;;11.70;6.05;;;13.90;99.90;;;16.25;33.58;100066.97;5000552;28;128004;-76
2022/05/06 06:36:36;;;;;;;15.85;5.80;;;14.00;99.90;;;16.45;33.36;100068.88;5000522;28;125097;-75
2022/05/06 06:39:05;;;;;;;18.67;6.05;;;14.20;99.90;;;16.66;33.23;100068.06;4997200;28;130955;-76
2022/05/06 06:41:38;;;;;;;11.43;5.03;;;14.40;99.90;;;16.77;32.01;100063.72;5000379;28;129211;-74
2022/05/06 06:44:07;;;;;;;13.20;5.90;;;14.50;99.90;;;16.60;32.46;100059.22;5014925;28;125949;-75
2022/05/06 06:46:53;;;;;;;;;;;14.50;99.90;;;16.53;32.24;100065.28;5025302;27;125451;-78
2022/05/06 06:49:47;;;;;;;12.43;4.82;;;14.40;99.90;;;16.84;32.14;100066.72;5017119;27;130248;-75
2022/05/06 06:52:41;;;;;;;10.00;4.90;;;14.60;99.90;;;17.08;31.87;100059.69;5018861;27;129744;-77
2022/05/06 06:55:10;;;;;;;14.30;5.50;;;14.80;99.90;;;17.02;32.31;100053.63;5035315;27;127246;-76
2022/05/06 06:57:39;;;;;;;13.35;5.30;;;14.60;99.90;;;16.99;32.53;100059.78;5035220;27;125516;-74
2022/05/06 07:00:09;;;;;;;10.48;5.55;;;14.60;99.90;;;17.16;32.65;100064.25;5034775;27;129833;-75
2022/05/06 07:02:38;;;;;;;14.15;7.65;;;14.80;99.90;;;17.26;32.49;100054.78;5034929;27;131407;-75
2022/05/06 07:05:09;;;;;;;12.43;7.35;;;14.90;99.90;;;17.36;33.11;100045.31;5034803;27;127343;-77
2022/05/06 07:13:21;;;;;;;23.38;6.00;;;15.40;99.90;;;17.83;31.50;100047.50;5018763;27;129731;-75
2022/05/06 07:15:50;;;;;;;9.93;5.03;;;15.60;99.90;;;17.90;31.00;100049.69;5035513;27;125983;-76
2022/05/06 07:18:18;;;;;;;10.57;4.50;;;15.60;99.90;;;17.88;30.94;100043.72;5020408;27;125142;-75
2022/05/06 07:20:48;;;;;;;10.82;5.57;;;15.60;99.90;;;18.02;31.28;100033.19;5019885;27;128956;-75
2022/05/06 07:23:17;;;;;;;10.63;4.95;;;15.80;99.90;;;17.94;31.57;100045.13;5034706;27;130558;-74
2022/05/06 07:25:46;;;;;;;8.85;4.30;;;15.80;99.90;;;17.80;29.79;100045.47;5020203;27;125838;-74
2022/05/06 07:28:14;;;;;;;9.50;4.15;;;15.50;99.90;;;17.74;30.73;100049.59;5021094;27;126419;-74
2022/05/06 07:30:43;;;;;;;12.00;4.78;;;15.50;99.90;;;17.81;30.61;100059.97;5035470;27;129918;-76
2022/05/06 07:33:11;;;;;;;7.57;4.35;;;15.70;99.90;;;18.04;30.94;100057.53;5019612;27;129107;-76
2022/05/06 07:35:40;;;;;;;11.68;4.60;;;16.00;99.90;;;18.13;31.43;100060.94;5032593;27;125567;-74
2022/05/06 07:38:09;;;;;;;9.15;4.90;;;16.00;99.90;;;18.32;31.08;100061.13;5034144;27;126419;-76
2022/05/06 07:40:38;;;;;;;9.98;4.60;;;16.10;99.90;;;18.54;30.82;100066.38;5027689;27;129958;-75
2022/05/06 07:43:06;;;;;;;10.63;4.28;;;16.40;99.90;;;18.82;30.95;100063.59;5015964;27;128871;-73
2022/05/06 07:45:35;;;;;;;11.85;4.82;;;16.50;99.90;;;19.04;30.26;100065.75;5014160;28;125442;-75
2022/05/06 07:48:06;;;;;;;7.70;3.83;;;16.70;99.90;;;18.92;28.31;100057.59;5038463;27;125864;-77
2022/05/06 07:50:37;;;;;;;11.43;4.82;;;16.60;99.90;;;19.06;28.83;100061.84;5036425;27;129386;-77
2022/05/06 07:53:06;;;;;;;11.35;4.65;;;16.70;99.90;;;19.16;29.09;100051.09;5035747;27;129677;-75
2022/05/06 07:55:36;;;;;;;9.63;4.72;;;16.80;99.90;;;19.33;28.93;100055.44;5033361;27;126204;-76
2022/05/06 07:58:05;;;;;;;11.13;5.00;;;17.00;99.90;;;19.49;28.94;100051.88;5024553;27;126329;-75
2022/05/06 08:00:35;;;;;;;10.95;4.00;;;17.10;99.90;;;19.67;28.88;100053.06;5016055;28;129748;-75
2022/05/06 08:05:56;;;;;;;12.52;4.50;;;16.90;99.90;;;19.36;27.70;100054.72;5014330;28;125889;-75
2022/05/06 08:08:26;;;;;;;10.77;4.40;;;16.80;99.90;;;19.75;27.62;100059.53;5014386;28;126451;-75
2022/05/06 08:10:56;;;;;;;7.90;4.10;;;17.30;99.90;;;19.92;27.03;100053.63;5013858;28;129327;-75
2022/05/06 08:13:26;;;;;;;13.90;4.63;;;17.40;99.90;;;20.13;26.99;100057.19;5014626;28;129832;-75
2022/05/06 08:15:57;;;;;;;10.55;4.25;;;17.50;99.90;;;19.93;27.22;100059.97;5013812;28;126703;-74
2022/05/06 08:18:27;;;;;;;10.50;4.03;;;17.40;99.90;;;19.89;26.10;100059.06;5014513;28;126190;-75
2022/05/06 08:20:56;;;;;;;9.32;4.43;;;17.40;99.90;;;19.87;26.25;100058.66;5013821;28;129843;-75
2022/05/06 08:23:25;;;;;;;14.48;5.10;;;17.50;99.90;;;19.86;26.10;100059.78;5014219;28;129719;-75
2022/05/06 08:25:56;;;;;;;7.55;4.13;;;17.60;99.90;;;19.77;25.81;100045.44;5013693;28;125769;-77
2022/05/06 08:28:25;;;;;;;12.48;4.20;;;17.30;99.90;;;19.73;26.87;100056.34;5032451;27;124969;-74
2022/05/06 08:30:53;;;;;;;6.93;4.05;;;17.40;99.90;;;19.90;26.71;100052.41;5016573;28;130818;-75
2022/05/06 08:33:23;;;;;;;8.80;4.45;;;17.60;99.90;;;20.10;26.94;100047.69;5017385;28;129758;-74
2022/05/06 08:35:52;;;;;;;9.95;3.88;;;17.70;99.90;;;19.85;24.88;100047.16;5017115;28;125930;-75
2022/05/06 08:38:21;;;;;;;9.27;4.03;;;17.40;99.90;;;19.98;26.32;100056.13;5017852;28;126412;-76
2022/05/06 08:40:50;;;;;;;7.97;3.75;;;17.50;99.90;;;19.74;27.13;100042.22;5016926;28;130772;-73
2022/05/06 08:43:20;;;;;;;6.07;3.22;;;17.50;99.90;;;19.79;26.68;100048.63;5017842;28;130235;-78
2022/05/06 08:51:32;;;;;;;8.23;3.20;;;17.60;99.90;;;19.91;26.69;100046.53;5039411;27;130146;-77
2022/05/06 08:54:01;;;;;;;11.60;3.65;;;17.70;99.90;;;20.31;26.75;100041.81;5021984;27;129560;-77
2022/05/06 08:56:31;;;;;;;8.40;3.40;;;18.10;99.90;;;20.54;26.92;100043.84;5017049;28;126112;-76
2022/05/06 08:59:01;;;;;;;5.95;2.97;;;18.20;99.90;;;20.73;25.95;100041.03;5017155;28;125777;-75
2022/05/06 09:01:30;;;;;;;7.43;3.08;;;18.50;99.90;;;20.43;25.27;100038.91;5017020;28;130040;-77
2022/05/06 09:04:02;;;;;;;7.10;3.35;;;17.90;99.90;;;20.62;25.64;100040.03;5016695;28;129491;-75
2022/05/06 09:06:32;;;;;;;7.15;3.45;;;18.00;99.90;;;20.92;25.71;100042.16;4998657;28;126781;-77
2022/05/06 09:09:02;;;;;;;4.20;2.47;;;18.40;99.90;;;20.86;25.29;100041.66;5017199;28;126459;-78
2022/05/06 09:16:39;;;;;;;6.20;2.83;;;18.50;99.90;;;20.93;26.15;100032.72;5016413;28;129549;-77
2022/05/06 09:17:19;;;;;;;6.35;3.10;;;18.70;99.90;;;20.94;25.85;100037.06;5017214;28;125404;-76
2022/05/06 09:19:48;;;;;;;10.38;3.60;;;19.00;99.90;;;21.36;25.45;100022.31;5016023;28;125741;-77
2022/05/06 09:22:16;;;;;;;5.95;3.05;;;19.10;99.90;;;21.82;25.38;100022.22;5016015;28;129758;-77
2022/05/06 09:24:49;;;;;;;9.30;3.50;;;19.40;99.90;;;22.16;24.89;100013.94;5016640;28;129632;-78
2022/05/06 09:27:18;;;;;;;5.85;2.70;;;19.60;99.90;;;22.13;24.39;100014.69;5001610;28;124503;-78
2022/05/06 09:29:50;;;;;;;5.50;2.63;;;19.30;99.90;;;22.11;24.43;100017.03;5001569;28;125383;-75
2022/05/06 09:32:24;;;;;;;5.53;2.65;;;19.40;99.90;;;22.26;23.88;100001.41;5015943;28;130798;-76
2022/05/06 09:34:55;;;;;;;7.70;3.00;;;19.30;99.90;;;22.46;24.54;99999.25;5001878;28;129491;-77
2022/05/06 09:37:38;;;;;;;6.25;2.60;;;19.70;99.90;;;22.58;23.28;100012.81;5016560;28;126123;-78
2022/05/06 09:40:12;;;;;;;7.82;2.33;;;19.90;99.90;;;22.45;22.57;100008.72;5016169;27;125502;-78
2022/05/06 09:42:42;;;;;;;6.57;2.63;;;19.50;99.90;;;22.72;23.58;100012.16;5015448;28;129889;-78
2022/05/06 09:45:14;;;;;;;5.25;2.40;;;19.90;99.90;;;22.80;22.79;100015.78;5017091;28;129679;-78
2022/05/06 09:47:43;;;;;;;5.82;2.10;;;20.00;99.90;;;23.01;21.29;100011.59;5006029;28;126014;-78
2022/05/06 09:50:13;;;;;;;5.53;2.55;;;19.90;99.90;;;23.22;21.77;99995.16;4997156;28;125439;-78
2022/05/06 09:52:41;;;;;;;6.05;2.38;;;20.10;99.90;;;23.30;21.71;100013.41;4995850;28;130446;-78
2022/05/06 09:55:10;;;;;;;9.07;2.60;;;20.30;99.90;;;22.95;22.26;100013.91;4980938;28;128601;-78
2022/05/06 09:57:39;;;;;;;5.53;2.60;;;20.00;99.90;;;23.17;22.39;100014.91;4996327;28;126081;-77
2022/05/06 10:00:10;;;;;;;7.40;2.45;;;20.00;99.90;;;23.10;22.96;100003.78;4996107;28;126203;-78
2022/05/06 10:02:40;;;;;;;7.35;2.47;;;20.20;99.90;;;23.19;22.70;100004.25;4995990;28;129875;-77
2022/05/06 10:05:10;;;;;;;5.32;2.60;;;20.30;99.90;;;23.73;21.86;100006.53;4995712;28;129273;-77
2022/05/06 10:07:44;;;;;;;6.15;2.28;;;20.60;99.90;;;23.71;21.16;99998.59;5007730;28;126457;-78
2022/05/06 10:10:21;;;;;;;12.38;3.05;;;20.50;99.90;;;23.78;24.22;100003.38;5016255;28;125240;-78
2022/05/06 10:12:56;;;;;;;5.13;2.47;;;20.70;99.90;;;23.72;21.00;100016.00;5016490;28;130402;-75
2022/05/06 10:15:27;;;;;;;5.93;2.70;;;19.60;99.90;;;23.39;22.44;100001.19;5016526;28;129953;-76
2022/05/06 10:18:01;;;;;;;6.78;2.58;;;19.90;99.90;;;23.57;22.03;100004.06;4999942;28;124629;-75
2022/05/06 10:20:52;;;;;;;5.80;2.35;;;20.50;99.90;;;24.05;22.31;99996.38;4998525;28;126528;-75
2022/05/06 10:23:23;;;;;;;8.02;2.63;;;20.80;99.90;;;24.01;21.08;100001.13;4982015;28;130023;-76
2022/05/06 10:25:55;;;;;;;5.75;2.13;;;20.70;99.90;;;23.56;21.51;100003.28;4999033;28;130171;-76
2022/05/06 10:35:15;;;;;;;6.35;2.60;;;20.80;99.90;;;23.80;21.38;99984.41;4953686;28;130451;-76
2022/05/06 10:37:46;;;;;;;6.95;2.75;;;20.50;99.90;;;23.72;21.85;99996.59;5003189;28;128634;-78
2022/05/06 10:40:31;;;;;;;4.93;2.47;;;20.70;99.90;;;24.10;21.74;99988.88;4997952;28;125862;-76
2022/05/06 10:43:04;;;;;;;8.27;2.83;;;20.90;99.90;;;23.75;20.62;99988.34;4997713;28;125501;-78
2022/05/06 10:45:36;;;;;;;6.13;2.40;;;19.60;99.90;;;23.68;21.55;99989.09;4997407;28;131566;-78
2022/05/06 10:48:22;;;;;;;6.55;2.50;;;19.80;99.90;;;24.12;21.83;99994.81;4996437;28;130051;-74
2022/05/06 10:50:52;;;;;;;6.50;2.65;;;20.70;99.90;;;24.19;21.69;99983.75;5015490;28;126411;-75
2022/05/06 10:53:36;;;;;;;9.25;2.30;;;20.80;99.90;;;23.99;21.50;99986.84;5015127;27;126196;-75
2022/05/06 10:56:05;;;;;;;7.40;3.25;;;20.80;99.90;;;23.92;20.89;99978.53;5014987;28;129922;-76
2022/05/06 10:58:34;;;;;;;7.93;2.95;;;20.50;99.90;;;23.79;22.03;99977.25;5000229;28;129819;-74
2022/05/06 11:01:02;;;;;;;6.60;2.63;;;20.50;99.90;;;23.62;20.99;99974.03;4997447;28;126373;-75
2022/05/06 11:03:30;;;;;;;7.43;2.38;;;20.40;99.90;;;23.56;21.01;99978.34;5014603;28;125747;-75
2022/05/06 11:06:00;;;;;;;6.97;2.20;;;20.30;99.90;;;23.29;21.17;99984.13;4994361;28;129982;-74
2022/05/06 11:08:35;;;;;;;6.93;2.80;;;20.00;99.90;;;23.23;21.94;99982.13;5013303;28;130460;-76